createdAt,value
2022-12-14T00:01:21.439Z,2.87
2022-12-14T00:03:48.770Z,2.87
2022-12-14T00:06:17.186Z,2.88
2022-12-14T00:08:44.351Z,2.88
2022-12-14T00:11:11.259Z,2.89
2022-12-14T00:13:38.502Z,2.90
2022-12-14T00:16:07.431Z,2.92
2022-12-14T00:18:33.995Z,2.92
2022-12-14T00:21:05.523Z,2.94
2022-12-14T00:23:37.098Z,2.96
2022-12-14T00:26:10.668Z,2.96
2022-12-14T00:28:37.723Z,2.97
2022-12-14T00:31:04.785Z,2.99
2022-12-14T00:33:31.869Z,3.00
2022-12-14T00:35:58.822Z,3.02
2022-12-14T00:38:25.940Z,3.02
2022-12-14T00:40:53.568Z,3.03
2022-12-14T00:43:21.704Z,3.03
2022-12-14T00:45:48.358Z,3.03
2022-12-14T00:48:14.949Z,3.02
2022-12-14T00:50:41.461Z,3.01
2022-12-14T00:53:14.790Z,2.99
2022-12-14T00:55:43.556Z,2.97
2022-12-14T00:58:11.929Z,2.96
2022-12-14T01:00:38.872Z,2.98
2022-12-14T01:03:05.934Z,2.96
2022-12-14T01:05:35.037Z,2.95
2022-12-14T01:08:01.825Z,2.95
2022-12-14T01:10:28.964Z,2.95
2022-12-14T01:12:55.281Z,2.96
2022-12-14T01:15:21.897Z,2.96
2022-12-14T01:17:48.292Z,2.97
2022-12-14T01:20:14.692Z,2.98
2022-12-14T01:22:41.166Z,2.98
2022-12-14T01:25:08.044Z,2.98
2022-12-14T01:27:34.511Z,2.97
2022-12-14T01:30:04.203Z,2.96
2022-12-14T01:32:30.963Z,2.95
2022-12-14T01:34:57.450Z,2.96
2022-12-14T01:37:24.045Z,2.95
2022-12-14T01:39:50.574Z,2.94
2022-12-14T01:42:17.186Z,2.95
2022-12-14T01:44:43.443Z,2.96
2022-12-14T01:47:24.407Z,2.94
2022-12-14T01:50:05.355Z,2.93
2022-12-14T01:52:48.686Z,2.96
2022-12-14T01:55:48.988Z,2.97
2022-12-14T01:58:19.906Z,2.97
2022-12-14T02:00:47.946Z,2.98
2022-12-14T02:03:25.967Z,2.96
2022-12-14T02:05:58.202Z,2.96
2022-12-14T02:08:25.659Z,2.94
2022-12-14T02:10:54.572Z,2.93
2022-12-14T02:13:26.911Z,2.92
2022-12-14T02:15:53.716Z,2.90
2022-12-14T02:18:28.636Z,2.88
2022-12-14T02:21:14.584Z,2.85
2022-12-14T02:24:07.728Z,2.83
2022-12-14T02:26:49.480Z,2.85
2022-12-14T02:29:37.327Z,2.84
2022-12-14T02:32:32.247Z,2.84
2022-12-14T02:35:15.290Z,2.84
2022-12-14T02:38:03.143Z,2.82
2022-12-14T02:41:08.458Z,2.80
2022-12-14T02:43:54.108Z,2.80
2022-12-14T02:46:31.467Z,2.78
2022-12-14T02:49:27.195Z,2.75
2022-12-14T02:52:15.495Z,2.76
2022-12-14T02:54:53.087Z,2.74
2022-12-14T02:57:32.078Z,2.72
2022-12-14T03:00:01.973Z,2.72
2022-12-14T03:02:30.936Z,2.70
2022-12-14T03:04:58.936Z,2.67
2022-12-14T03:07:34.221Z,2.65
2022-12-14T03:10:09.087Z,2.65
2022-12-14T03:12:40.181Z,2.62
2022-12-14T03:15:11.565Z,2.60
2022-12-14T03:17:39.934Z,2.57
2022-12-14T03:20:11.526Z,2.57
2022-12-14T03:22:48.091Z,2.56
2022-12-14T03:25:21.304Z,2.53
2022-12-14T03:28:05.935Z,2.49
2022-12-14T03:30:58.971Z,2.49
2022-12-14T03:33:25.573Z,2.48
2022-12-14T03:36:06.547Z,2.45
2022-12-14T03:38:43.827Z,2.46
2022-12-14T03:41:35.230Z,2.48
2022-12-14T03:44:11.481Z,2.48
2022-12-14T03:47:26.059Z,2.48
2022-12-14T03:50:09.135Z,2.51
2022-12-14T03:53:01.198Z,2.51
2022-12-14T03:55:40.187Z,2.53
2022-12-14T03:58:21.771Z,2.54
2022-12-14T04:01:06.356Z,2.53
2022-12-14T04:03:50.401Z,2.55
2022-12-14T04:06:38.085Z,2.57
2022-12-14T04:09:33.347Z,2.57
2022-12-14T04:12:26.538Z,2.58
2022-12-14T04:15:17.065Z,2.58
2022-12-14T04:18:05.402Z,2.59
2022-12-14T04:20:40.729Z,2.59
2022-12-14T04:23:14.393Z,2.60
2022-12-14T04:26:04.902Z,2.62
2022-12-14T04:28:58.722Z,2.64
2022-12-14T04:31:30.796Z,2.66
2022-12-14T04:33:59.606Z,2.68
2022-12-14T04:36:31.891Z,2.69
2022-12-14T04:39:07.046Z,2.68
2022-12-14T04:41:38.717Z,2.70
2022-12-14T04:44:15.747Z,2.71
2022-12-14T04:46:44.048Z,2.74
2022-12-14T04:49:36.884Z,2.73
2022-12-14T04:52:20.542Z,2.77
2022-12-14T04:54:59.610Z,2.78
2022-12-14T04:57:29.622Z,2.83
2022-12-14T04:59:56.461Z,2.86
2022-12-14T05:02:39.063Z,2.89
2022-12-14T05:05:17.618Z,2.92
2022-12-14T05:07:57.433Z,2.94
2022-12-14T05:10:53.750Z,2.97
2022-12-14T05:13:31.910Z,3.00
2022-12-14T05:15:59.461Z,3.04
2022-12-14T05:18:26.097Z,3.04
2022-12-14T05:20:52.667Z,3.06
2022-12-14T05:23:19.208Z,3.07
2022-12-14T05:25:45.732Z,3.07
2022-12-14T05:28:15.529Z,3.09
2022-12-14T05:30:41.960Z,3.08
2022-12-14T05:33:19.590Z,3.08
2022-12-14T05:35:46.114Z,3.09
2022-12-14T05:38:13.316Z,3.09
2022-12-14T05:40:39.930Z,3.08
2022-12-14T05:43:07.631Z,3.07
2022-12-14T05:45:34.153Z,3.07
2022-12-14T05:48:00.714Z,3.05
2022-12-14T05:50:27.206Z,3.06
2022-12-14T05:52:55.537Z,3.07
2022-12-14T05:55:21.864Z,3.10
2022-12-14T05:57:48.381Z,3.13
2022-12-14T06:00:15.402Z,3.12
2022-12-14T06:02:41.777Z,3.12
2022-12-14T06:05:08.591Z,3.13
2022-12-14T06:07:35.102Z,3.11
2022-12-14T06:10:01.444Z,3.11
2022-12-14T06:12:27.836Z,3.12
2022-12-14T06:14:54.279Z,3.12
2022-12-14T06:17:20.640Z,3.12
2022-12-14T06:19:49.904Z,3.12
2022-12-14T06:22:17.322Z,3.13
2022-12-14T06:24:43.683Z,3.15
2022-12-14T06:27:10.049Z,3.15
2022-12-14T06:29:36.390Z,3.18
2022-12-14T06:32:02.749Z,3.20
2022-12-14T06:34:29.113Z,3.23
2022-12-14T06:36:55.461Z,3.24
2022-12-14T06:39:21.834Z,3.25
2022-12-14T06:41:51.751Z,3.27
2022-12-14T06:44:18.291Z,3.29
2022-12-14T06:46:45.030Z,3.30
2022-12-14T06:49:14.830Z,3.30
2022-12-14T06:51:42.037Z,3.31
2022-12-14T06:54:10.697Z,3.29
2022-12-14T06:56:38.266Z,3.29
2022-12-14T06:59:05.380Z,3.30
2022-12-14T07:01:31.895Z,3.27
2022-12-14T07:03:59.639Z,3.27
2022-12-14T07:06:28.515Z,3.26
2022-12-14T07:08:57.004Z,3.26
2022-12-14T07:11:24.646Z,3.25
2022-12-14T07:13:51.194Z,3.24
2022-12-14T07:16:21.267Z,3.24
2022-12-14T07:18:48.175Z,3.23
2022-12-14T07:21:16.708Z,3.23
2022-12-14T07:23:44.710Z,3.24
2022-12-14T07:26:17.796Z,3.25
2022-12-14T07:28:45.723Z,3.26
2022-12-14T07:31:20.760Z,3.27
2022-12-14T07:33:47.642Z,3.28
2022-12-14T07:36:19.349Z,3.29
2022-12-14T07:38:48.171Z,3.31
2022-12-14T07:41:22.061Z,3.32
2022-12-14T07:43:51.797Z,3.35
2022-12-14T07:46:22.133Z,3.37
2022-12-14T07:48:51.749Z,3.39
2022-12-14T07:51:22.371Z,3.39
2022-12-14T07:53:50.152Z,3.42
2022-12-14T07:56:18.901Z,3.43
2022-12-14T07:58:45.413Z,3.46
2022-12-14T08:01:14.762Z,3.46
2022-12-14T08:03:44.125Z,3.48
2022-12-14T08:06:12.383Z,3.50
2022-12-14T08:08:39.208Z,3.51
2022-12-14T08:11:08.036Z,3.53
2022-12-14T08:13:34.976Z,3.55
2022-12-14T08:16:19.690Z,3.57
2022-12-14T08:18:46.137Z,3.60
2022-12-14T08:21:14.108Z,3.63
2022-12-14T08:23:41.578Z,3.67
2022-12-14T08:26:08.873Z,3.70
2022-12-14T08:28:36.132Z,3.73
2022-12-14T08:31:11.154Z,3.75
2022-12-14T08:33:39.041Z,3.81
2022-12-14T08:36:17.137Z,3.82
2022-12-14T08:38:45.417Z,3.87
2022-12-14T08:41:15.050Z,3.90
2022-12-14T08:43:41.792Z,3.93
2022-12-14T08:46:09.977Z,3.93
2022-12-14T08:48:36.833Z,3.98
2022-12-14T08:51:08.931Z,3.98
2022-12-14T08:53:36.997Z,4.02
2022-12-14T08:56:12.311Z,4.04
2022-12-14T08:58:39.991Z,4.07
2022-12-14T09:01:09.544Z,4.10
2022-12-14T09:03:36.124Z,4.12
2022-12-14T09:06:07.949Z,4.16
2022-12-14T09:08:35.366Z,4.18
2022-12-14T09:11:03.073Z,4.20
2022-12-14T09:13:30.235Z,4.22
2022-12-14T09:16:06.487Z,4.22
2022-12-14T09:18:34.483Z,4.24
2022-12-14T09:21:01.243Z,4.25
2022-12-14T09:23:32.371Z,4.26
2022-12-14T09:26:02.928Z,4.29
2022-12-14T09:28:30.734Z,4.32
2022-12-14T09:30:59.200Z,4.36
2022-12-14T09:33:29.794Z,4.37
2022-12-14T09:36:08.721Z,4.38
2022-12-14T09:38:38.079Z,4.40
2022-12-14T09:41:07.635Z,4.41
2022-12-14T09:43:41.067Z,4.39
2022-12-14T09:46:19.712Z,4.42
2022-12-14T09:48:47.398Z,4.44
2022-12-14T09:51:19.093Z,4.45
2022-12-14T09:53:48.923Z,4.44
2022-12-14T09:56:19.260Z,4.45
2022-12-14T09:58:54.929Z,4.41
2022-12-14T10:01:24.062Z,4.41
2022-12-14T10:04:05.732Z,4.36
2022-12-14T10:06:59.335Z,4.36
2022-12-14T10:09:47.526Z,4.31
2022-12-14T10:12:45.722Z,4.32
2022-12-14T10:15:29.251Z,4.29
2022-12-14T10:18:06.568Z,4.28
2022-12-14T10:20:49.024Z,4.25
2022-12-14T10:23:22.967Z,4.25
2022-12-14T10:25:54.167Z,4.24
2022-12-14T10:28:32.330Z,4.23
2022-12-14T10:31:02.196Z,4.21
2022-12-14T10:33:31.352Z,4.19
2022-12-14T10:36:18.223Z,4.17
2022-12-14T10:38:58.726Z,4.13
2022-12-14T10:41:37.269Z,4.12
2022-12-14T10:44:18.064Z,4.11
2022-12-14T10:46:57.114Z,4.11
2022-12-14T10:49:31.445Z,4.13
2022-12-14T10:52:03.959Z,4.15
2022-12-14T10:54:45.365Z,4.17
2022-12-14T10:57:18.390Z,4.21
2022-12-14T11:00:05.207Z,4.23
2022-12-14T11:02:36.113Z,4.29
2022-12-14T11:05:11.769Z,4.34
2022-12-14T11:07:40.291Z,4.39
2022-12-14T11:10:17.253Z,4.45
2022-12-14T11:12:55.033Z,4.52
2022-12-14T11:15:29.756Z,4.61
2022-12-14T11:18:02.706Z,4.70
2022-12-14T11:20:29.423Z,4.77
2022-12-14T11:22:59.105Z,4.84
2022-12-14T11:25:43.252Z,4.92
2022-12-14T11:28:25.716Z,4.99
2022-12-14T11:31:01.308Z,5.08
2022-12-14T11:33:49.764Z,5.13
2022-12-14T11:36:24.136Z,5.20
2022-12-14T11:39:02.967Z,5.25
2022-12-14T11:41:34.241Z,5.30
2022-12-14T11:44:16.462Z,5.32
2022-12-14T11:46:59.147Z,5.35
2022-12-14T11:49:37.646Z,5.40
2022-12-14T11:52:23.420Z,5.41
2022-12-14T11:54:52.707Z,5.44
2022-12-14T11:57:46.629Z,5.45
2022-12-14T12:00:55.555Z,5.43
2022-12-14T12:03:27.079Z,5.43
2022-12-14T12:05:54.828Z,5.42
2022-12-14T12:08:27.382Z,5.41
2022-12-14T12:11:01.912Z,5.38
2022-12-14T12:13:32.352Z,5.37
2022-12-14T12:16:15.774Z,5.37
2022-12-14T12:18:56.456Z,5.35
2022-12-14T12:21:32.160Z,5.34
2022-12-14T12:24:01.833Z,5.34
2022-12-14T12:27:11.946Z,5.33
2022-12-14T12:29:46.623Z,5.34
2022-12-14T12:32:23.443Z,5.34
2022-12-14T12:35:24.092Z,5.33
2022-12-14T12:37:58.709Z,5.37
2022-12-14T12:40:33.000Z,5.39
2022-12-14T12:43:07.325Z,5.41
2022-12-14T12:45:42.943Z,5.42
2022-12-14T12:48:20.930Z,5.45
2022-12-14T12:50:51.228Z,5.48
2022-12-14T12:53:41.329Z,5.50
2022-12-14T12:56:17.030Z,5.54
2022-12-14T12:58:52.149Z,5.57
2022-12-14T13:01:39.305Z,5.57
2022-12-14T13:04:11.475Z,5.61
2022-12-14T13:06:48.675Z,5.64
2022-12-14T13:09:27.259Z,5.66
2022-12-14T13:11:54.757Z,5.70
2022-12-14T13:14:43.192Z,5.70
2022-12-14T13:17:30.486Z,5.73
2022-12-14T13:19:59.025Z,5.79
2022-12-14T13:22:32.598Z,5.81
2022-12-14T13:25:07.785Z,5.82
2022-12-14T13:27:45.300Z,5.87
2022-12-14T13:30:11.788Z,5.91
2022-12-14T13:32:54.490Z,5.92
2022-12-14T13:35:51.424Z,5.95
2022-12-14T13:38:36.264Z,5.99
2022-12-14T13:41:29.628Z,5.98
2022-12-14T13:44:11.120Z,6.01
2022-12-14T13:46:39.272Z,6.03
2022-12-14T13:49:08.963Z,6.04
2022-12-14T13:51:40.463Z,6.06
2022-12-14T13:54:18.753Z,6.07
2022-12-14T13:56:45.845Z,6.10
2022-12-14T13:59:25.911Z,6.11
2022-12-14T14:01:55.640Z,6.11
2022-12-14T14:04:30.380Z,6.09
2022-12-14T14:07:22.542Z,6.06
2022-12-14T14:09:54.917Z,6.07
2022-12-14T14:12:35.489Z,6.04
2022-12-14T14:15:24.199Z,6.04
2022-12-14T14:17:53.266Z,6.04
2022-12-14T14:20:38.161Z,5.99
2022-12-14T14:23:29.143Z,5.97
2022-12-14T14:26:23.273Z,5.95
2022-12-14T14:29:05.114Z,5.95
2022-12-14T14:31:47.697Z,5.90
2022-12-14T14:34:23.783Z,5.90
2022-12-14T14:36:50.988Z,5.87
2022-12-14T14:42:24.235Z,5.83
2022-12-14T14:44:58.149Z,5.80
2022-12-14T14:47:35.748Z,5.78
2022-12-14T14:50:08.281Z,5.76
2022-12-14T14:52:37.573Z,5.72
2022-12-14T14:55:52.132Z,5.67
2022-12-14T14:58:23.531Z,5.65
2022-12-14T15:01:01.693Z,5.60
2022-12-14T15:03:34.912Z,5.59
2022-12-14T15:06:01.488Z,5.56
2022-12-14T15:08:43.325Z,5.48
2022-12-14T15:11:19.699Z,5.42
2022-12-14T15:13:53.159Z,5.37
2022-12-14T15:16:27.823Z,5.31
2022-12-14T15:18:54.833Z,5.27
2022-12-14T15:21:21.311Z,5.22
2022-12-14T15:23:53.759Z,5.15
2022-12-14T15:26:27.728Z,5.11
2022-12-14T15:28:58.377Z,5.06
2022-12-14T15:31:58.912Z,4.98
2022-12-14T15:34:26.445Z,4.94
2022-12-14T15:36:53.547Z,4.88
2022-12-14T15:39:39.744Z,4.80
2022-12-14T15:42:11.892Z,4.75
2022-12-14T15:44:43.682Z,4.71
2022-12-14T15:47:22.126Z,4.64
2022-12-14T15:49:48.477Z,4.62
2022-12-14T15:52:16.796Z,4.58
2022-12-14T15:54:43.359Z,4.56
2022-12-14T15:57:17.618Z,4.52
2022-12-14T15:59:46.228Z,4.48
2022-12-14T16:02:25.946Z,4.42
2022-12-14T16:04:53.219Z,4.39
2022-12-14T16:07:30.277Z,4.33
2022-12-14T16:10:01.405Z,4.29
2022-12-14T16:12:54.019Z,4.24
2022-12-14T16:15:24.054Z,4.22
2022-12-14T16:17:57.462Z,4.17
2022-12-14T16:20:32.999Z,4.13
2022-12-14T16:23:13.287Z,4.10
2022-12-14T16:25:50.546Z,4.06
2022-12-14T16:28:33.265Z,4.03
2022-12-14T16:31:11.854Z,4.02
2022-12-14T16:33:40.658Z,3.97
2022-12-14T16:36:13.373Z,3.93
2022-12-14T16:39:00.378Z,3.88
2022-12-14T16:41:39.974Z,3.83
2022-12-14T16:44:21.968Z,3.79
2022-12-14T16:47:00.430Z,3.77
2022-12-14T16:49:40.889Z,3.74
2022-12-14T16:52:10.210Z,3.72
2022-12-14T16:54:38.273Z,3.69
2022-12-14T16:57:17.596Z,3.66
2022-12-14T16:59:46.088Z,3.64
2022-12-14T17:02:28.202Z,3.59
2022-12-14T17:04:55.790Z,3.56
2022-12-14T17:07:25.484Z,3.54
2022-12-14T17:09:51.867Z,3.51
2022-12-14T17:12:18.960Z,3.48
2022-12-14T17:14:49.685Z,3.46
2022-12-14T17:17:25.444Z,3.43
2022-12-14T17:19:51.948Z,3.42
2022-12-14T17:22:24.751Z,3.39
2022-12-14T17:24:51.380Z,3.38
2022-12-14T17:27:22.010Z,3.36
2022-12-14T17:29:49.527Z,3.35
2022-12-14T17:32:17.437Z,3.34
2022-12-14T17:34:45.574Z,3.34
2022-12-14T17:37:17.375Z,3.32
2022-12-14T17:39:50.396Z,3.30
2022-12-14T17:42:20.375Z,3.27
2022-12-14T17:44:54.150Z,3.25
2022-12-14T17:47:20.555Z,3.24
2022-12-14T17:49:55.779Z,3.20
2022-12-14T17:52:35.596Z,3.18
2022-12-14T17:55:02.061Z,3.17
2022-12-14T17:57:29.163Z,3.14
2022-12-14T18:00:14.225Z,3.11
2022-12-14T18:02:43.495Z,3.09
2022-12-14T18:05:20.031Z,3.08
2022-12-14T18:07:46.503Z,3.06
2022-12-14T18:10:18.527Z,3.05
2022-12-14T18:12:45.234Z,3.02
2022-12-14T18:15:20.992Z,2.96
2022-12-14T18:17:49.445Z,2.95
2022-12-14T18:20:16.162Z,2.94
2022-12-14T18:22:42.744Z,2.92
2022-12-14T18:25:25.030Z,2.86
2022-12-14T18:27:51.755Z,2.84
2022-12-14T18:30:18.487Z,2.81
2022-12-14T18:32:45.146Z,2.79
2022-12-14T18:35:21.974Z,2.75
2022-12-14T18:37:49.598Z,2.76
2022-12-14T18:40:18.646Z,2.74
2022-12-14T18:42:45.415Z,2.71
2022-12-14T18:45:23.572Z,2.69
2022-12-14T18:47:50.988Z,2.67
2022-12-14T18:50:19.103Z,2.66
2022-12-14T18:52:46.716Z,2.65
2022-12-14T18:55:20.485Z,2.65
2022-12-14T18:57:48.650Z,2.64
2022-12-14T19:00:17.851Z,2.63
2022-12-14T19:02:46.887Z,2.61
2022-12-14T19:05:25.638Z,2.60
2022-12-14T19:07:52.882Z,2.59
2022-12-14T19:10:22.359Z,2.57
2022-12-14T19:12:50.379Z,2.57
2022-12-14T19:15:23.570Z,2.56
2022-12-14T19:17:50.265Z,2.56
2022-12-14T19:20:17.541Z,2.53
2022-12-14T19:22:44.834Z,2.50
2022-12-14T19:25:12.784Z,2.47
2022-12-14T19:28:25.744Z,2.44
2022-12-14T19:30:30.210Z,2.43
2022-12-14T19:32:58.427Z,2.41
2022-12-14T19:35:24.901Z,2.40
2022-12-14T19:37:51.918Z,2.39
2022-12-14T19:40:19.200Z,2.38
2022-12-14T19:42:48.626Z,2.36
2022-12-14T19:45:16.521Z,2.35
2022-12-14T19:47:44.171Z,2.35
2022-12-14T19:50:12.702Z,2.34
2022-12-14T19:52:39.299Z,2.33
2022-12-14T19:55:07.005Z,2.31
2022-12-14T19:57:33.546Z,2.29
2022-12-14T20:00:00.106Z,2.26
2022-12-14T20:02:29.822Z,2.23
2022-12-14T20:04:56.358Z,2.19
2022-12-14T20:07:22.743Z,2.16
2022-12-14T20:09:49.339Z,2.15
2022-12-14T20:12:15.755Z,2.12
2022-12-14T20:14:42.863Z,2.09
2022-12-14T20:17:11.135Z,2.06
2022-12-14T20:19:38.555Z,2.06
2022-12-14T20:22:06.065Z,2.05
2022-12-14T20:24:32.605Z,2.03
2022-12-14T20:27:01.594Z,2.01
2022-12-14T20:29:28.893Z,2.00
2022-12-14T20:31:55.495Z,1.97
2022-12-14T20:34:23.173Z,1.97
2022-12-14T20:36:49.639Z,1.96
2022-12-14T20:39:16.399Z,1.93
2022-12-14T20:41:42.743Z,1.92
2022-12-14T20:44:12.559Z,1.90
2022-12-14T20:46:45.200Z,1.87
2022-12-14T20:49:19.164Z,1.85
2022-12-14T20:51:47.568Z,1.81
2022-12-14T20:54:16.024Z,1.79
2022-12-14T20:56:43.386Z,1.75
2022-12-14T20:59:10.766Z,1.71
2022-12-14T21:01:39.064Z,1.66
2022-12-14T21:04:07.671Z,1.63
2022-12-14T21:06:41.980Z,1.60
2022-12-14T21:09:10.066Z,1.58
2022-12-14T21:12:05.292Z,1.56
2022-12-14T21:14:37.751Z,1.54
2022-12-14T21:17:05.285Z,1.54
2022-12-14T21:19:32.549Z,1.52
2022-12-14T21:21:59.011Z,1.50
2022-12-14T21:25:00.448Z,1.48
2022-12-14T21:27:21.754Z,1.45
2022-12-14T21:29:48.685Z,1.46
2022-12-14T21:32:16.625Z,1.44
2022-12-14T21:34:43.111Z,1.43
2022-12-14T21:37:10.170Z,1.41
2022-12-14T21:39:36.741Z,1.41
2022-12-14T21:42:13.802Z,1.39
2022-12-14T21:44:44.740Z,1.39
2022-12-14T21:47:13.981Z,1.38
2022-12-14T21:49:43.013Z,1.38
2022-12-14T21:52:12.460Z,1.39
2022-12-14T21:54:39.546Z,1.39
2022-12-14T21:57:24.528Z,1.43
2022-12-14T21:59:50.900Z,1.46
2022-12-14T22:02:22.934Z,1.48
2022-12-14T22:04:49.762Z,1.50
2022-12-14T22:07:17.883Z,1.51
2022-12-14T22:09:45.115Z,1.54
2022-12-14T22:12:17.464Z,1.57
2022-12-14T22:14:45.117Z,1.60
2022-12-14T22:17:14.475Z,1.61
2022-12-14T22:19:40.788Z,1.61
2022-12-14T22:22:12.060Z,1.60
2022-12-14T22:24:38.561Z,1.61
2022-12-14T22:27:05.099Z,1.59
2022-12-14T22:29:32.011Z,1.58
2022-12-14T22:31:58.421Z,1.58
2022-12-14T22:34:24.850Z,1.56
2022-12-14T22:36:52.458Z,1.56
2022-12-14T22:39:19.526Z,1.53
2022-12-14T22:41:46.346Z,1.53
2022-12-14T22:44:13.183Z,1.51
2022-12-14T22:46:40.507Z,1.49
2022-12-14T22:49:08.716Z,1.47
2022-12-14T22:51:35.258Z,1.46
2022-12-14T22:54:01.779Z,1.47
2022-12-14T22:56:35.898Z,1.43
2022-12-14T22:59:32.893Z,1.40
2022-12-14T23:01:59.730Z,1.40
2022-12-14T23:04:26.574Z,1.40
2022-12-14T23:06:54.097Z,1.39
2022-12-14T23:09:39.151Z,1.39
2022-12-14T23:12:24.769Z,1.40
2022-12-14T23:15:09.811Z,1.37
2022-12-14T23:17:55.059Z,1.37
2022-12-14T23:20:40.226Z,1.36
2022-12-14T23:23:27.246Z,1.34
2022-12-14T23:26:12.307Z,1.34
2022-12-14T23:28:57.542Z,1.35
2022-12-14T23:31:42.506Z,1.36
2022-12-14T23:34:27.159Z,1.37
2022-12-14T23:37:15.083Z,1.37
2022-12-14T23:40:05.681Z,1.38
2022-12-14T23:42:50.906Z,1.38
2022-12-14T23:45:35.936Z,1.36
2022-12-14T23:48:20.811Z,1.33
2022-12-14T23:51:05.516Z,1.31
2022-12-14T23:53:50.632Z,1.29
2022-12-14T23:56:35.768Z,1.27
2022-12-14T23:59:22.687Z,1.25
